sensor_id;sensor_type;location;lat;lon;timestamp;P1;durP1;ratioP1;P2;durP2;ratioP2
20669;SDS011;10494;50.868;4.180;2023-08-20T00:00:15;9.80;;;3.05;;
20669;SDS011;10494;50.868;4.180;2023-08-20T00:02:42;17.85;;;3.00;;
20669;SDS011;10494;50.868;4.180;2023-08-20T00:05:08;11.40;;;3.08;;
20669;SDS011;10494;50.868;4.180;2023-08-20T00:07:34;9.68;;;2.90;;
20669;SDS011;10494;50.868;4.180;2023-08-20T00:10:01;13.32;;;3.75;;
20669;SDS011;10494;50.868;4.180;2023-08-20T00:12:29;11.75;;;3.90;;
20669;SDS011;10494;50.868;4.180;2023-08-20T00:14:59;12.48;;;3.80;;
20669;SDS011;10494;50.868;4.180;2023-08-20T00:17:31;16.98;;;4.25;;
20669;SDS011;10494;50.868;4.180;2023-08-20T00:20:02;11.48;;;3.58;;
20669;SDS011;10494;50.868;4.180;2023-08-20T00:22:40;13.45;;;3.65;;
20669;SDS011;10494;50.868;4.180;2023-08-20T00:25:13;14.07;;;3.75;;
20669;SDS011;10494;50.868;4.180;2023-08-20T00:27:40;16.02;;;3.25;;
20669;SDS011;10494;50.868;4.180;2023-08-20T00:30:07;16.45;;;3.70;;
20669;SDS011;10494;50.868;4.180;2023-08-20T00:32:33;19.75;;;3.97;;
20669;SDS011;10494;50.868;4.180;2023-08-20T00:34:59;16.80;;;3.88;;
20669;SDS011;10494;50.868;4.180;2023-08-20T00:37:25;21.10;;;3.47;;
20669;SDS011;10494;50.868;4.180;2023-08-20T00:39:51;12.90;;;3.45;;
20669;SDS011;10494;50.868;4.180;2023-08-20T00:42:16;12.43;;;3.63;;
20669;SDS011;10494;50.868;4.180;2023-08-20T00:44:42;21.10;;;3.92;;
20669;SDS011;10494;50.868;4.180;2023-08-20T00:47:11;16.80;;;3.58;;
20669;SDS011;10494;50.868;4.180;2023-08-20T00:49:38;13.30;;;3.75;;
20669;SDS011;10494;50.868;4.180;2023-08-20T00:52:06;13.93;;;3.60;;
20669;SDS011;10494;50.868;4.180;2023-08-20T00:54:34;10.40;;;3.28;;
20669;SDS011;10494;50.868;4.180;2023-08-20T00:57:00;10.25;;;3.08;;
20669;SDS011;10494;50.868;4.180;2023-08-20T00:59:27;13.82;;;3.42;;
20669;SDS011;10494;50.868;4.180;2023-08-20T01:01:55;13.55;;;3.35;;
20669;SDS011;10494;50.868;4.180;2023-08-20T01:04:20;11.48;;;3.67;;
20669;SDS011;10494;50.868;4.180;2023-08-20T01:12:20;14.90;;;3.40;;
20669;SDS011;10494;50.868;4.180;2023-08-20T01:14:47;14.05;;;3.60;;
20669;SDS011;10494;50.868;4.180;2023-08-20T01:17:13;8.15;;;3.03;;
20669;SDS011;10494;50.868;4.180;2023-08-20T01:19:39;16.98;;;3.80;;
20669;SDS011;10494;50.868;4.180;2023-08-20T01:30:47;11.85;;;3.60;;
20669;SDS011;10494;50.868;4.180;2023-08-20T01:33:14;14.93;;;4.45;;
20669;SDS011;10494;50.868;4.180;2023-08-20T01:35:40;15.48;;;3.72;;
20669;SDS011;10494;50.868;4.180;2023-08-20T01:38:06;11.20;;;3.38;;
20669;SDS011;10494;50.868;4.180;2023-08-20T01:40:32;18.33;;;4.15;;
20669;SDS011;10494;50.868;4.180;2023-08-20T01:42:58;14.02;;;4.25;;
20669;SDS011;10494;50.868;4.180;2023-08-20T01:45:24;12.27;;;3.47;;
20669;SDS011;10494;50.868;4.180;2023-08-20T01:47:51;10.90;;;3.53;;
20669;SDS011;10494;50.868;4.180;2023-08-20T01:50:17;9.77;;;3.25;;
20669;SDS011;10494;50.868;4.180;2023-08-20T01:52:43;13.57;;;3.20;;
20669;SDS011;10494;50.868;4.180;2023-08-20T01:55:08;9.77;;;3.55;;
20669;SDS011;10494;50.868;4.180;2023-08-20T01:57:34;16.55;;;3.75;;
20669;SDS011;10494;50.868;4.180;2023-08-20T01:59:59;12.98;;;3.80;;
20669;SDS011;10494;50.868;4.180;2023-08-20T02:02:25;15.25;;;3.65;;
20669;SDS011;10494;50.868;4.180;2023-08-20T02:04:51;15.68;;;3.92;;
20669;SDS011;10494;50.868;4.180;2023-08-20T02:07:16;17.33;;;3.30;;
20669;SDS011;10494;50.868;4.180;2023-08-20T02:09:42;11.93;;;2.95;;
20669;SDS011;10494;50.868;4.180;2023-08-20T02:12:08;16.30;;;3.63;;
20669;SDS011;10494;50.868;4.180;2023-08-20T02:14:34;9.32;;;3.20;;
20669;SDS011;10494;50.868;4.180;2023-08-20T02:17:03;14.35;;;4.18;;
20669;SDS011;10494;50.868;4.180;2023-08-20T02:19:29;12.68;;;3.90;;
20669;SDS011;10494;50.868;4.180;2023-08-20T02:21:55;15.38;;;4.38;;
20669;SDS011;10494;50.868;4.180;2023-08-20T02:24:20;11.55;;;3.30;;
20669;SDS011;10494;50.868;4.180;2023-08-20T02:26:48;10.38;;;3.63;;
20669;SDS011;10494;50.868;4.180;2023-08-20T02:29:13;10.90;;;3.25;;
20669;SDS011;10494;50.868;4.180;2023-08-20T02:31:39;11.13;;;3.80;;
20669;SDS011;10494;50.868;4.180;2023-08-20T02:34:05;14.27;;;3.67;;
20669;SDS011;10494;50.868;4.180;2023-08-20T02:36:30;11.68;;;3.38;;
20669;SDS011;10494;50.868;4.180;2023-08-20T02:38:56;9.35;;;3.50;;
20669;SDS011;10494;50.868;4.180;2023-08-20T02:41:22;9.27;;;3.00;;
20669;SDS011;10494;50.868;4.180;2023-08-20T02:43:48;10.10;;;3.03;;
20669;SDS011;10494;50.868;4.180;2023-08-20T02:46:14;13.35;;;3.65;;
20669;SDS011;10494;50.868;4.180;2023-08-20T02:48:39;13.70;;;3.22;;
20669;SDS011;10494;50.868;4.180;2023-08-20T02:51:05;11.25;;;3.65;;
20669;SDS011;10494;50.868;4.180;2023-08-20T02:53:31;14.63;;;3.65;;
20669;SDS011;10494;50.868;4.180;2023-08-20T02:55:57;14.45;;;3.88;;
20669;SDS011;10494;50.868;4.180;2023-08-20T02:58:23;13.40;;;3.72;;
20669;SDS011;10494;50.868;4.180;2023-08-20T03:00:49;10.20;;;4.00;;
20669;SDS011;10494;50.868;4.180;2023-08-20T03:03:15;13.63;;;4.20;;
20669;SDS011;10494;50.868;4.180;2023-08-20T03:05:41;11.85;;;3.85;;
20669;SDS011;10494;50.868;4.180;2023-08-20T03:08:07;8.82;;;3.80;;
20669;SDS011;10494;50.868;4.180;2023-08-20T03:10:33;11.07;;;4.05;;
20669;SDS011;10494;50.868;4.180;2023-08-20T03:13:03;13.15;;;3.50;;
20669;SDS011;10494;50.868;4.180;2023-08-20T03:15:29;7.05;;;3.17;;
20669;SDS011;10494;50.868;4.180;2023-08-20T03:17:55;12.15;;;3.20;;
20669;SDS011;10494;50.868;4.180;2023-08-20T03:20:20;9.10;;;3.20;;
20669;SDS011;10494;50.868;4.180;2023-08-20T03:22:46;13.75;;;3.65;;
20669;SDS011;10494;50.868;4.180;2023-08-20T03:25:12;13.48;;;4.05;;
20669;SDS011;10494;50.868;4.180;2023-08-20T03:27:38;7.65;;;3.10;;
20669;SDS011;10494;50.868;4.180;2023-08-20T03:30:04;9.63;;;3.45;;
20669;SDS011;10494;50.868;4.180;2023-08-20T03:32:30;7.10;;;3.00;;
20669;SDS011;10494;50.868;4.180;2023-08-20T03:34:56;7.93;;;3.17;;
20669;SDS011;10494;50.868;4.180;2023-08-20T03:37:24;10.43;;;3.33;;
20669;SDS011;10494;50.868;4.180;2023-08-20T03:39:50;7.70;;;3.10;;
20669;SDS011;10494;50.868;4.180;2023-08-20T03:42:16;13.50;;;4.18;;
20669;SDS011;10494;50.868;4.180;2023-08-20T03:44:42;9.18;;;3.38;;
20669;SDS011;10494;50.868;4.180;2023-08-20T03:47:08;13.88;;;3.70;;
20669;SDS011;10494;50.868;4.180;2023-08-20T03:49:33;10.60;;;3.15;;
20669;SDS011;10494;50.868;4.180;2023-08-20T03:51:59;7.60;;;3.83;;
20669;SDS011;10494;50.868;4.180;2023-08-20T03:54:27;8.82;;;3.60;;
20669;SDS011;10494;50.868;4.180;2023-08-20T03:56:53;14.85;;;3.80;;
20669;SDS011;10494;50.868;4.180;2023-08-20T03:59:19;8.80;;;3.20;;
20669;SDS011;10494;50.868;4.180;2023-08-20T04:01:45;10.57;;;3.38;;
20669;SDS011;10494;50.868;4.180;2023-08-20T04:04:10;6.50;;;3.35;;
20669;SDS011;10494;50.868;4.180;2023-08-20T04:06:36;10.10;;;3.22;;
20669;SDS011;10494;50.868;4.180;2023-08-20T04:09:02;12.93;;;3.13;;
20669;SDS011;10494;50.868;4.180;2023-08-20T04:11:28;6.18;;;2.80;;
20669;SDS011;10494;50.868;4.180;2023-08-20T04:13:53;9.32;;;3.13;;
20669;SDS011;10494;50.868;4.180;2023-08-20T04:16:19;7.80;;;2.88;;
20669;SDS011;10494;50.868;4.180;2023-08-20T04:18:45;6.20;;;2.60;;
20669;SDS011;10494;50.868;4.180;2023-08-20T04:21:10;9.02;;;2.80;;
20669;SDS011;10494;50.868;4.180;2023-08-20T04:23:36;9.68;;;2.35;;
20669;SDS011;10494;50.868;4.180;2023-08-20T04:26:01;10.75;;;3.33;;
20669;SDS011;10494;50.868;4.180;2023-08-20T04:28:27;9.13;;;3.03;;
20669;SDS011;10494;50.868;4.180;2023-08-20T04:30:53;7.90;;;3.00;;
20669;SDS011;10494;50.868;4.180;2023-08-20T04:33:19;9.10;;;3.10;;
20669;SDS011;10494;50.868;4.180;2023-08-20T04:35:45;10.50;;;3.00;;
20669;SDS011;10494;50.868;4.180;2023-08-20T04:38:11;10.18;;;3.13;;
20669;SDS011;10494;50.868;4.180;2023-08-20T04:40:37;10.13;;;2.55;;
20669;SDS011;10494;50.868;4.180;2023-08-20T04:43:03;6.68;;;2.50;;
20669;SDS011;10494;50.868;4.180;2023-08-20T04:45:28;9.00;;;3.00;;
20669;SDS011;10494;50.868;4.180;2023-08-20T04:47:54;7.18;;;2.60;;
20669;SDS011;10494;50.868;4.180;2023-08-20T04:50:20;10.35;;;3.15;;
20669;SDS011;10494;50.868;4.180;2023-08-20T04:52:45;9.38;;;2.92;;
20669;SDS011;10494;50.868;4.180;2023-08-20T04:55:11;7.60;;;2.95;;
20669;SDS011;10494;50.868;4.180;2023-08-20T04:57:37;6.57;;;3.42;;
20669;SDS011;10494;50.868;4.180;2023-08-20T05:00:02;9.00;;;2.92;;
20669;SDS011;10494;50.868;4.180;2023-08-20T05:02:28;9.65;;;3.25;;
20669;SDS011;10494;50.868;4.180;2023-08-20T05:04:54;8.93;;;3.20;;
20669;SDS011;10494;50.868;4.180;2023-08-20T05:07:20;7.25;;;2.70;;
20669;SDS011;10494;50.868;4.180;2023-08-20T05:09:45;9.07;;;2.90;;
20669;SDS011;10494;50.868;4.180;2023-08-20T05:12:11;10.23;;;3.20;;
20669;SDS011;10494;50.868;4.180;2023-08-20T05:14:37;10.18;;;3.15;;
20669;SDS011;10494;50.868;4.180;2023-08-20T05:17:02;12.88;;;3.80;;
20669;SDS011;10494;50.868;4.180;2023-08-20T05:19:28;13.23;;;3.78;;
20669;SDS011;10494;50.868;4.180;2023-08-20T05:21:54;9.18;;;3.15;;
20669;SDS011;10494;50.868;4.180;2023-08-20T05:24:23;8.13;;;3.03;;
20669;SDS011;10494;50.868;4.180;2023-08-20T05:27:03;10.15;;;2.53;;
20669;SDS011;10494;50.868;4.180;2023-08-20T05:29:49;10.43;;;3.42;;
20669;SDS011;10494;50.868;4.180;2023-08-20T05:32:14;9.40;;;3.55;;
20669;SDS011;10494;50.868;4.180;2023-08-20T05:34:41;15.07;;;3.47;;
20669;SDS011;10494;50.868;4.180;2023-08-20T05:37:07;8.77;;;3.17;;
20669;SDS011;10494;50.868;4.180;2023-08-20T05:39:37;7.00;;;3.20;;
20669;SDS011;10494;50.868;4.180;2023-08-20T05:42:05;11.38;;;3.10;;
20669;SDS011;10494;50.868;4.180;2023-08-20T05:44:31;6.25;;;2.83;;
20669;SDS011;10494;50.868;4.180;2023-08-20T05:46:57;11.18;;;3.05;;
20669;SDS011;10494;50.868;4.180;2023-08-20T05:49:22;8.00;;;3.08;;
20669;SDS011;10494;50.868;4.180;2023-08-20T05:51:48;12.00;;;2.95;;
20669;SDS011;10494;50.868;4.180;2023-08-20T05:54:13;15.15;;;3.42;;
20669;SDS011;10494;50.868;4.180;2023-08-20T05:56:39;14.90;;;3.30;;
20669;SDS011;10494;50.868;4.180;2023-08-20T05:59:05;8.25;;;2.47;;
20669;SDS011;10494;50.868;4.180;2023-08-20T06:01:31;7.78;;;2.75;;
20669;SDS011;10494;50.868;4.180;2023-08-20T06:03:56;12.52;;;3.40;;
20669;SDS011;10494;50.868;4.180;2023-08-20T06:06:22;8.80;;;3.40;;
20669;SDS011;10494;50.868;4.180;2023-08-20T06:08:48;8.90;;;2.88;;
20669;SDS011;10494;50.868;4.180;2023-08-20T06:11:13;13.15;;;4.30;;
20669;SDS011;10494;50.868;4.180;2023-08-20T06:13:39;8.10;;;3.40;;
20669;SDS011;10494;50.868;4.180;2023-08-20T06:16:06;9.32;;;3.10;;
20669;SDS011;10494;50.868;4.180;2023-08-20T06:18:32;12.20;;;3.50;;
20669;SDS011;10494;50.868;4.180;2023-08-20T06:20:58;13.75;;;3.35;;
20669;SDS011;10494;50.868;4.180;2023-08-20T06:23:23;10.70;;;3.17;;
20669;SDS011;10494;50.868;4.180;2023-08-20T06:25:52;9.05;;;3.05;;
20669;SDS011;10494;50.868;4.180;2023-08-20T06:28:17;7.30;;;2.83;;
20669;SDS011;10494;50.868;4.180;2023-08-20T06:30:44;11.43;;;3.38;;
20669;SDS011;10494;50.868;4.180;2023-08-20T06:33:10;10.52;;;3.65;;
20669;SDS011;10494;50.868;4.180;2023-08-20T06:35:36;11.15;;;4.00;;
20669;SDS011;10494;50.868;4.180;2023-08-20T06:38:04;11.68;;;4.03;;
20669;SDS011;10494;50.868;4.180;2023-08-20T06:40:32;18.38;;;4.78;;
20669;SDS011;10494;50.868;4.180;2023-08-20T06:42:58;17.05;;;4.72;;
20669;SDS011;10494;50.868;4.180;2023-08-20T06:45:23;16.13;;;5.15;;
20669;SDS011;10494;50.868;4.180;2023-08-20T06:47:50;15.02;;;4.32;;
20669;SDS011;10494;50.868;4.180;2023-08-20T06:50:16;9.27;;;4.30;;
20669;SDS011;10494;50.868;4.180;2023-08-20T06:52:42;15.70;;;5.03;;
20669;SDS011;10494;50.868;4.180;2023-08-20T06:55:08;11.43;;;4.65;;
20669;SDS011;10494;50.868;4.180;2023-08-20T06:57:33;12.73;;;3.95;;
20669;SDS011;10494;50.868;4.180;2023-08-20T06:59:59;11.50;;;4.10;;
20669;SDS011;10494;50.868;4.180;2023-08-20T07:02:25;12.48;;;3.90;;
20669;SDS011;10494;50.868;4.180;2023-08-20T07:04:51;12.80;;;4.30;;
20669;SDS011;10494;50.868;4.180;2023-08-20T07:07:16;14.60;;;3.50;;
20669;SDS011;10494;50.868;4.180;2023-08-20T07:09:42;13.52;;;3.90;;
20669;SDS011;10494;50.868;4.180;2023-08-20T07:12:08;7.85;;;3.00;;
20669;SDS011;10494;50.868;4.180;2023-08-20T07:14:33;17.02;;;3.55;;
20669;SDS011;10494;50.868;4.180;2023-08-20T07:16:59;16.17;;;3.35;;
20669;SDS011;10494;50.868;4.180;2023-08-20T07:19:27;9.05;;;2.70;;
20669;SDS011;10494;50.868;4.180;2023-08-20T07:21:53;12.93;;;3.10;;
20669;SDS011;10494;50.868;4.180;2023-08-20T07:24:19;8.90;;;2.20;;
20669;SDS011;10494;50.868;4.180;2023-08-20T07:26:50;6.68;;;2.13;;
20669;SDS011;10494;50.868;4.180;2023-08-20T07:29:27;13.20;;;3.13;;
20669;SDS011;10494;50.868;4.180;2023-08-20T07:31:56;7.20;;;1.80;;
20669;SDS011;10494;50.868;4.180;2023-08-20T07:34:22;10.25;;;2.17;;
20669;SDS011;10494;50.868;4.180;2023-08-20T07:36:49;8.48;;;2.60;;
20669;SDS011;10494;50.868;4.180;2023-08-20T07:39:15;11.55;;;1.88;;
20669;SDS011;10494;50.868;4.180;2023-08-20T07:41:43;7.10;;;1.85;;
20669;SDS011;10494;50.868;4.180;2023-08-20T07:44:08;5.55;;;1.60;;
20669;SDS011;10494;50.868;4.180;2023-08-20T07:46:34;8.35;;;1.75;;
20669;SDS011;10494;50.868;4.180;2023-08-20T07:48:59;4.28;;;1.33;;
20669;SDS011;10494;50.868;4.180;2023-08-20T07:51:25;4.32;;;1.08;;
20669;SDS011;10494;50.868;4.180;2023-08-20T07:53:51;4.65;;;1.27;;
20669;SDS011;10494;50.868;4.180;2023-08-20T07:56:16;4.35;;;1.13;;
20669;SDS011;10494;50.868;4.180;2023-08-20T07:58:42;5.75;;;1.30;;
20669;SDS011;10494;50.868;4.180;2023-08-20T08:01:07;5.57;;;1.50;;
20669;SDS011;10494;50.868;4.180;2023-08-20T08:03:33;7.55;;;1.42;;
20669;SDS011;10494;50.868;4.180;2023-08-20T08:05:59;6.20;;;1.60;;
20669;SDS011;10494;50.868;4.180;2023-08-20T08:08:25;6.25;;;1.35;;
20669;SDS011;10494;50.868;4.180;2023-08-20T08:10:50;6.43;;;1.60;;
20669;SDS011;10494;50.868;4.180;2023-08-20T08:13:18;5.93;;;1.58;;
20669;SDS011;10494;50.868;4.180;2023-08-20T08:15:45;6.65;;;2.88;;
20669;SDS011;10494;50.868;4.180;2023-08-20T08:18:11;4.38;;;1.10;;
20669;SDS011;10494;50.868;4.180;2023-08-20T08:20:37;3.45;;;1.27;;
20669;SDS011;10494;50.868;4.180;2023-08-20T08:23:02;5.65;;;1.52;;
20669;SDS011;10494;50.868;4.180;2023-08-20T08:25:28;5.35;;;1.45;;
20669;SDS011;10494;50.868;4.180;2023-08-20T08:27:54;4.28;;;1.15;;
20669;SDS011;10494;50.868;4.180;2023-08-20T08:30:20;4.32;;;1.30;;
20669;SDS011;10494;50.868;4.180;2023-08-20T08:32:45;4.43;;;1.30;;
20669;SDS011;10494;50.868;4.180;2023-08-20T08:35:11;2.83;;;0.77;;
20669;SDS011;10494;50.868;4.180;2023-08-20T08:37:37;2.80;;;1.08;;
20669;SDS011;10494;50.868;4.180;2023-08-20T08:40:03;6.05;;;1.33;;
20669;SDS011;10494;50.868;4.180;2023-08-20T08:42:32;4.07;;;1.15;;
20669;SDS011;10494;50.868;4.180;2023-08-20T08:45:01;3.03;;;1.00;;
20669;SDS011;10494;50.868;4.180;2023-08-20T08:47:28;2.42;;;0.73;;
20669;SDS011;10494;50.868;4.180;2023-08-20T08:49:54;2.25;;;0.70;;
20669;SDS011;10494;50.868;4.180;2023-08-20T08:52:22;1.85;;;0.73;;
20669;SDS011;10494;50.868;4.180;2023-08-20T08:54:48;3.83;;;0.82;;
20669;SDS011;10494;50.868;4.180;2023-08-20T08:57:14;3.67;;;0.80;;
20669;SDS011;10494;50.868;4.180;2023-08-20T08:59:41;2.38;;;0.60;;
20669;SDS011;10494;50.868;4.180;2023-08-20T09:02:07;4.72;;;1.15;;
20669;SDS011;10494;50.868;4.180;2023-08-20T09:04:37;3.03;;;0.85;;
20669;SDS011;10494;50.868;4.180;2023-08-20T09:07:11;2.63;;;0.90;;
20669;SDS011;10494;50.868;4.180;2023-08-20T09:09:38;3.53;;;1.20;;
20669;SDS011;10494;50.868;4.180;2023-08-20T09:12:17;4.20;;;0.95;;
20669;SDS011;10494;50.868;4.180;2023-08-20T09:14:48;5.22;;;1.00;;
20669;SDS011;10494;50.868;4.180;2023-08-20T09:17:15;4.15;;;1.08;;
20669;SDS011;10494;50.868;4.180;2023-08-20T09:19:42;3.05;;;0.90;;
20669;SDS011;10494;50.868;4.180;2023-08-20T09:22:12;6.00;;;1.10;;
20669;SDS011;10494;50.868;4.180;2023-08-20T09:24:46;3.28;;;0.93;;
20669;SDS011;10494;50.868;4.180;2023-08-20T09:27:17;1.42;;;0.57;;
20669;SDS011;10494;50.868;4.180;2023-08-20T09:29:50;1.45;;;0.60;;
20669;SDS011;10494;50.868;4.180;2023-08-20T09:32:19;2.60;;;1.10;;
20669;SDS011;10494;50.868;4.180;2023-08-20T09:34:49;3.22;;;1.17;;
20669;SDS011;10494;50.868;4.180;2023-08-20T09:37:17;2.88;;;0.70;;
20669;SDS011;10494;50.868;4.180;2023-08-20T09:39:43;3.03;;;0.60;;
20669;SDS011;10494;50.868;4.180;2023-08-20T09:42:10;3.05;;;0.88;;
20669;SDS011;10494;50.868;4.180;2023-08-20T09:44:38;2.50;;;0.63;;
20669;SDS011;10494;50.868;4.180;2023-08-20T09:47:06;4.45;;;0.93;;
20669;SDS011;10494;50.868;4.180;2023-08-20T09:49:42;4.10;;;0.98;;
20669;SDS011;10494;50.868;4.180;2023-08-20T09:52:10;2.75;;;0.70;;
20669;SDS011;10494;50.868;4.180;2023-08-20T09:54:50;3.35;;;0.77;;
20669;SDS011;10494;50.868;4.180;2023-08-20T09:57:32;3.53;;;0.80;;
20669;SDS011;10494;50.868;4.180;2023-08-20T09:59:59;1.55;;;0.73;;
20669;SDS011;10494;50.868;4.180;2023-08-20T10:02:26;4.18;;;1.08;;
20669;SDS011;10494;50.868;4.180;2023-08-20T10:04:52;3.08;;;1.00;;
20669;SDS011;10494;50.868;4.180;2023-08-20T10:07:18;4.47;;;0.70;;
20669;SDS011;10494;50.868;4.180;2023-08-20T10:09:44;2.67;;;0.80;;
20669;SDS011;10494;50.868;4.180;2023-08-20T10:12:14;3.13;;;0.95;;
20669;SDS011;10494;50.868;4.180;2023-08-20T10:14:41;2.53;;;0.98;;
20669;SDS011;10494;50.868;4.180;2023-08-20T10:17:11;1.90;;;0.60;;
20669;SDS011;10494;50.868;4.180;2023-08-20T10:19:37;4.68;;;1.00;;
20669;SDS011;10494;50.868;4.180;2023-08-20T10:22:03;3.78;;;0.90;;
20669;SDS011;10494;50.868;4.180;2023-08-20T10:24:46;2.70;;;0.80;;
20669;SDS011;10494;50.868;4.180;2023-08-20T10:27:23;2.53;;;0.95;;
20669;SDS011;10494;50.868;4.180;2023-08-20T10:29:53;5.15;;;0.60;;
20669;SDS011;10494;50.868;4.180;2023-08-20T10:32:19;2.55;;;0.60;;
20669;SDS011;10494;50.868;4.180;2023-08-20T10:35:05;1.42;;;0.68;;
20669;SDS011;10494;50.868;4.180;2023-08-20T10:37:33;4.43;;;0.70;;
20669;SDS011;10494;50.868;4.180;2023-08-20T10:39:59;2.08;;;0.70;;
20669;SDS011;10494;50.868;4.180;2023-08-20T10:42:25;1.65;;;0.75;;
20669;SDS011;10494;50.868;4.180;2023-08-20T10:44:58;3.53;;;0.82;;
20669;SDS011;10494;50.868;4.180;2023-08-20T10:50:07;1.92;;;0.60;;
20669;SDS011;10494;50.868;4.180;2023-08-20T10:52:39;2.33;;;0.75;;
20669;SDS011;10494;50.868;4.180;2023-08-20T10:55:12;3.70;;;0.70;;
20669;SDS011;10494;50.868;4.180;2023-08-20T10:57:39;5.43;;;1.00;;
20669;SDS011;10494;50.868;4.180;2023-08-20T11:00:05;4.28;;;0.90;;
20669;SDS011;10494;50.868;4.180;2023-08-20T11:02:36;2.95;;;1.10;;
20669;SDS011;10494;50.868;4.180;2023-08-20T11:05:15;4.90;;;1.13;;
20669;SDS011;10494;50.868;4.180;2023-08-20T11:07:43;4.63;;;0.93;;
20669;SDS011;10494;50.868;4.180;2023-08-20T11:10:12;4.53;;;0.98;;
20669;SDS011;10494;50.868;4.180;2023-08-20T11:12:50;4.05;;;1.10;;
20669;SDS011;10494;50.868;4.180;2023-08-20T11:15:16;3.50;;;0.95;;
20669;SDS011;10494;50.868;4.180;2023-08-20T11:17:45;3.85;;;1.10;;
20669;SDS011;10494;50.868;4.180;2023-08-20T11:20:13;3.85;;;1.33;;
20669;SDS011;10494;50.868;4.180;2023-08-20T11:22:40;3.38;;;0.80;;
20669;SDS011;10494;50.868;4.180;2023-08-20T11:25:06;6.65;;;1.08;;
20669;SDS011;10494;50.868;4.180;2023-08-20T11:27:43;2.00;;;0.85;;
20669;SDS011;10494;50.868;4.180;2023-08-20T11:30:10;3.53;;;0.68;;
20669;SDS011;10494;50.868;4.180;2023-08-20T11:32:39;4.55;;;1.10;;
20669;SDS011;10494;50.868;4.180;2023-08-20T11:35:05;5.38;;;1.35;;
20669;SDS011;10494;50.868;4.180;2023-08-20T11:37:32;5.53;;;1.10;;
20669;SDS011;10494;50.868;4.180;2023-08-20T11:39:58;4.47;;;1.27;;
20669;SDS011;10494;50.868;4.180;2023-08-20T11:42:24;4.50;;;1.13;;
20669;SDS011;10494;50.868;4.180;2023-08-20T11:44:50;3.83;;;1.50;;
20669;SDS011;10494;50.868;4.180;2023-08-20T11:47:20;6.10;;;1.10;;
20669;SDS011;10494;50.868;4.180;2023-08-20T11:49:46;7.20;;;1.33;;
20669;SDS011;10494;50.868;4.180;2023-08-20T11:52:11;3.60;;;1.00;;
20669;SDS011;10494;50.868;4.180;2023-08-20T11:54:38;4.03;;;0.88;;
20669;SDS011;10494;50.868;4.180;2023-08-20T11:57:05;3.33;;;0.85;;
20669;SDS011;10494;50.868;4.180;2023-08-20T11:59:31;3.83;;;1.10;;
20669;SDS011;10494;50.868;4.180;2023-08-20T12:01:58;2.92;;;0.93;;
20669;SDS011;10494;50.868;4.180;2023-08-20T12:04:30;5.93;;;1.33;;
20669;SDS011;10494;50.868;4.180;2023-08-20T12:09:34;7.35;;;1.35;;
20669;SDS011;10494;50.868;4.180;2023-08-20T12:12:00;5.55;;;1.45;;
20669;SDS011;10494;50.868;4.180;2023-08-20T12:14:26;2.50;;;0.90;;
20669;SDS011;10494;50.868;4.180;2023-08-20T12:16:53;5.30;;;1.52;;
20669;SDS011;10494;50.868;4.180;2023-08-20T12:19:20;2.03;;;0.80;;
20669;SDS011;10494;50.868;4.180;2023-08-20T12:21:46;4.47;;;1.17;;
20669;SDS011;10494;50.868;4.180;2023-08-20T12:24:12;5.35;;;1.15;;
20669;SDS011;10494;50.868;4.180;2023-08-20T12:26:41;2.95;;;1.02;;
20669;SDS011;10494;50.868;4.180;2023-08-20T12:29:07;2.55;;;1.10;;
20669;SDS011;10494;50.868;4.180;2023-08-20T12:31:33;4.40;;;1.05;;
20669;SDS011;10494;50.868;4.180;2023-08-20T12:33:59;6.43;;;1.25;;
20669;SDS011;10494;50.868;4.180;2023-08-20T12:36:25;5.55;;;1.15;;
20669;SDS011;10494;50.868;4.180;2023-08-20T12:38:51;6.35;;;1.30;;
20669;SDS011;10494;50.868;4.180;2023-08-20T12:41:18;6.63;;;1.45;;
20669;SDS011;10494;50.868;4.180;2023-08-20T12:43:44;4.85;;;1.20;;
20669;SDS011;10494;50.868;4.180;2023-08-20T12:46:10;5.78;;;1.38;;
20669;SDS011;10494;50.868;4.180;2023-08-20T12:48:37;3.80;;;1.45;;
20669;SDS011;10494;50.868;4.180;2023-08-20T12:51:03;7.38;;;1.50;;
20669;SDS011;10494;50.868;4.180;2023-08-20T12:53:29;5.63;;;1.00;;
20669;SDS011;10494;50.868;4.180;2023-08-20T12:55:54;5.82;;;1.00;;
20669;SDS011;10494;50.868;4.180;2023-08-20T12:58:20;7.45;;;1.27;;
20669;SDS011;10494;50.868;4.180;2023-08-20T13:00:47;5.03;;;1.20;;
20669;SDS011;10494;50.868;4.180;2023-08-20T13:03:13;2.85;;;1.00;;
20669;SDS011;10494;50.868;4.180;2023-08-20T13:05:39;3.88;;;1.10;;
20669;SDS011;10494;50.868;4.180;2023-08-20T13:08:05;5.15;;;1.30;;
20669;SDS011;10494;50.868;4.180;2023-08-20T13:10:33;3.97;;;1.15;;
20669;SDS011;10494;50.868;4.180;2023-08-20T13:13:00;6.45;;;1.40;;
20669;SDS011;10494;50.868;4.180;2023-08-20T13:15:28;5.65;;;1.33;;
20669;SDS011;10494;50.868;4.180;2023-08-20T13:17:58;6.22;;;1.40;;
20669;SDS011;10494;50.868;4.180;2023-08-20T13:20:25;4.47;;;1.00;;
20669;SDS011;10494;50.868;4.180;2023-08-20T13:22:52;8.52;;;1.50;;
20669;SDS011;10494;50.868;4.180;2023-08-20T13:25:18;3.33;;;1.00;;
20669;SDS011;10494;50.868;4.180;2023-08-20T13:27:46;3.88;;;1.25;;
20669;SDS011;10494;50.868;4.180;2023-08-20T13:30:12;3.30;;;0.90;;
20669;SDS011;10494;50.868;4.180;2023-08-20T13:32:38;2.45;;;0.77;;
20669;SDS011;10494;50.868;4.180;2023-08-20T13:35:05;5.50;;;1.55;;
20669;SDS011;10494;50.868;4.180;2023-08-20T13:37:32;4.90;;;1.10;;
20669;SDS011;10494;50.868;4.180;2023-08-20T13:39:59;4.13;;;1.13;;
20669;SDS011;10494;50.868;4.180;2023-08-20T13:42:27;4.53;;;1.60;;
20669;SDS011;10494;50.868;4.180;2023-08-20T13:44:52;6.43;;;1.00;;
20669;SDS011;10494;50.868;4.180;2023-08-20T13:47:19;5.22;;;1.20;;
20669;SDS011;10494;50.868;4.180;2023-08-20T13:49:46;3.53;;;0.93;;
20669;SDS011;10494;50.868;4.180;2023-08-20T13:52:12;4.15;;;0.90;;
20669;SDS011;10494;50.868;4.180;2023-08-20T13:54:37;4.47;;;1.00;;
20669;SDS011;10494;50.868;4.180;2023-08-20T13:57:03;4.65;;;1.08;;
20669;SDS011;10494;50.868;4.180;2023-08-20T13:59:30;3.10;;;0.88;;
20669;SDS011;10494;50.868;4.180;2023-08-20T14:01:56;3.67;;;1.10;;
20669;SDS011;10494;50.868;4.180;2023-08-20T14:04:21;1.83;;;0.90;;
20669;SDS011;10494;50.868;4.180;2023-08-20T14:06:47;3.60;;;1.20;;
20669;SDS011;10494;50.868;4.180;2023-08-20T14:09:13;7.63;;;1.25;;
20669;SDS011;10494;50.868;4.180;2023-08-20T14:11:39;4.80;;;1.33;;
20669;SDS011;10494;50.868;4.180;2023-08-20T14:14:05;5.45;;;1.38;;
20669;SDS011;10494;50.868;4.180;2023-08-20T14:16:31;2.95;;;1.13;;
20669;SDS011;10494;50.868;4.180;2023-08-20T14:18:56;3.30;;;1.15;;
20669;SDS011;10494;50.868;4.180;2023-08-20T14:21:22;3.53;;;1.40;;
20669;SDS011;10494;50.868;4.180;2023-08-20T14:23:48;6.47;;;1.30;;
20669;SDS011;10494;50.868;4.180;2023-08-20T14:26:13;4.95;;;1.08;;
20669;SDS011;10494;50.868;4.180;2023-08-20T14:28:40;2.80;;;1.05;;
20669;SDS011;10494;50.868;4.180;2023-08-20T14:31:08;4.43;;;1.67;;
20669;SDS011;10494;50.868;4.180;2023-08-20T14:33:34;3.45;;;1.10;;
20669;SDS011;10494;50.868;4.180;2023-08-20T14:36:00;3.90;;;1.15;;
20669;SDS011;10494;50.868;4.180;2023-08-20T14:38:25;7.10;;;1.23;;
20669;SDS011;10494;50.868;4.180;2023-08-20T14:40:52;6.25;;;1.40;;
20669;SDS011;10494;50.868;4.180;2023-08-20T14:43:18;3.65;;;1.45;;
20669;SDS011;10494;50.868;4.180;2023-08-20T14:45:45;6.30;;;1.20;;
20669;SDS011;10494;50.868;4.180;2023-08-20T14:48:10;4.28;;;1.00;;
20669;SDS011;10494;50.868;4.180;2023-08-20T14:50:36;3.17;;;1.33;;
20669;SDS011;10494;50.868;4.180;2023-08-20T14:53:01;8.63;;;1.50;;
20669;SDS011;10494;50.868;4.180;2023-08-20T14:55:27;4.38;;;1.13;;
20669;SDS011;10494;50.868;4.180;2023-08-20T14:57:53;6.28;;;1.48;;
20669;SDS011;10494;50.868;4.180;2023-08-20T15:00:19;4.50;;;1.20;;